Tuttle, Idaho
Current Conditions -  °F | °C
As of 7:53 AM on Thursday 23 Oct 2014 (Local Time) from KJER Reporting Station
Few Clouds Few Clouds  
Wind Chill: 51°   Ceiling: Unl
Heat Index: 51°   Visibility: 10mi
Dew Point: 28°   Wind: 10mph
Humidity: 41%   Direction: 70°ENE
Pressure: 30.07"   Gusts: NA
Location:  43.0634°N, 114.867°W
Report Text: KJER 231353Z AUTO 07009KT 10SM FEW120 11/M02 A3007 RMK AO2 SLP170 T01061022
Loading
Personal Weather Stations






























Interactive Weather Map
Tropical Storm Tracking
New forecast layout! Learn more

10-Day Weather Forecast

Advertisements
Track Severe Weather on mobile